Fredricksburg, California
Current Conditions -  °F | °C
As of 9:53 AM on Tuesday 21 Oct 2014 (Local Time) from KTVL Reporting Station
Clear Clear  
Wind Chill: 45°   Ceiling: Unl
Heat Index: 49°   Visibility: 10mi
Dew Point: 24°   Wind: 9mph
Humidity: 38%   Direction: 190°S
Pressure: 30.14"   Gusts: NA
Location:  38.6924°N, 119.835°W
Report Text: KTVL 211653Z AUTO 19008KT 10SM CLR 09/M04 A3014 RMK AO2 SLP175 T00941044
Loading
Personal Weather Stations






























Interactive Weather Map
Tropical Storm Tracking
New forecast layout! Learn more

10-Day Weather Forecast

Advertisements
Track Severe Weather on mobile